Rechercher aéroport 
image banner adimage banner adimage banner ad
image banner ad

48CA - Huntington Beach Service Center

Situé à Westminster, United States

ICAO - 48CA, IATA -

Données fournies par Airmate  

Information générale

Coordonnées: N33°44'43" W118°0'1"
Élévation : 29 feet MSL.
Variation magnétique : 14° East
Voir autres Aéroports à California

Données opérationnelles

Special qualification required
Heure actuelle UTC:
Heure actuelle locale:
Météo à : KSLI - Los Alamitos Aaf ( 7 km )
METAR: KSLI 270556Z AUTO 22004KT 10SM OVC019 20/18 A2998 RMK AO2 SLP155 T02020179 10242 20201 51015
TAF: TAF KSLI 270500Z 2705/2811 21004KT 9999 FEW010 OVC020 QNH2995INS BECMG 2708/2709 24004KT 9999 OVC015 QNH2994INS BECMG 2714/2715 28002KT 9999 OVC007 QNH2998INS BECMG 2716/2717 28008KT 9999 SKC QNH2993INS BECMG 2807/2808 28004KT 9999 SCT015 QNH2999INS TX27/2722Z TN19/2714Z
Voir NOTAMs / SUP AIP / TFR affectant cet aéroport [VIEW]
Fréquences de communication: [VIEW]

Pistes:

Coordonnées de l'aéroport

Adresse: Westminster United States

Vue satellite de 48CA